sensor_id;sensor_type;location;lat;lon;timestamp;P1;durP1;ratioP1;P2;durP2;ratioP2
70305;SDS011;57714;51.698;5.344;2022-10-16T00:01:09;2.25;;;1.20;;
70305;SDS011;57714;51.698;5.344;2022-10-16T00:03:37;1.30;;;0.87;;
70305;SDS011;57714;51.698;5.344;2022-10-16T00:06:03;1.20;;;0.82;;
70305;SDS011;57714;51.698;5.344;2022-10-16T00:08:28;1.17;;;0.80;;
70305;SDS011;57714;51.698;5.344;2022-10-16T00:11:15;1.03;;;0.77;;
70305;SDS011;57714;51.698;5.344;2022-10-16T00:13:40;1.15;;;0.80;;
70305;SDS011;57714;51.698;5.344;2022-10-16T00:16:06;1.10;;;0.70;;
70305;SDS011;57714;51.698;5.344;2022-10-16T00:18:31;1.33;;;1.05;;
70305;SDS011;57714;51.698;5.344;2022-10-16T00:21:02;1.20;;;0.90;;
70305;SDS011;57714;51.698;5.344;2022-10-16T00:23:27;1.30;;;0.98;;
70305;SDS011;57714;51.698;5.344;2022-10-16T00:25:56;1.40;;;1.00;;
70305;SDS011;57714;51.698;5.344;2022-10-16T00:28:22;1.20;;;0.82;;
70305;SDS011;57714;51.698;5.344;2022-10-16T00:30:48;1.40;;;1.13;;
70305;SDS011;57714;51.698;5.344;2022-10-16T00:33:13;1.20;;;0.90;;
70305;SDS011;57714;51.698;5.344;2022-10-16T00:35:38;1.20;;;0.83;;
70305;SDS011;57714;51.698;5.344;2022-10-16T00:38:04;1.30;;;0.90;;
70305;SDS011;57714;51.698;5.344;2022-10-16T00:40:29;1.20;;;0.83;;
70305;SDS011;57714;51.698;5.344;2022-10-16T00:42:55;1.77;;;1.43;;
70305;SDS011;57714;51.698;5.344;2022-10-16T00:45:20;1.20;;;0.80;;
70305;SDS011;57714;51.698;5.344;2022-10-16T00:47:46;1.00;;;0.70;;
70305;SDS011;57714;51.698;5.344;2022-10-16T00:52:43;0.90;;;0.60;;
70305;SDS011;57714;51.698;5.344;2022-10-16T00:55:09;1.20;;;0.80;;
70305;SDS011;57714;51.698;5.344;2022-10-16T00:57:35;1.23;;;0.93;;
70305;SDS011;57714;51.698;5.344;2022-10-16T01:00:00;1.10;;;0.80;;
70305;SDS011;57714;51.698;5.344;2022-10-16T01:02:26;1.30;;;0.90;;
70305;SDS011;57714;51.698;5.344;2022-10-16T01:04:52;1.20;;;0.80;;
70305;SDS011;57714;51.698;5.344;2022-10-16T01:13:35;1.20;;;0.80;;
70305;SDS011;57714;51.698;5.344;2022-10-16T01:15:47;1.00;;;0.70;;
70305;SDS011;57714;51.698;5.344;2022-10-16T01:18:18;1.20;;;0.90;;
70305;SDS011;57714;51.698;5.344;2022-10-16T01:25:56;1.00;;;0.70;;
70305;SDS011;57714;51.698;5.344;2022-10-16T01:28:28;1.10;;;0.80;;
70305;SDS011;57714;51.698;5.344;2022-10-16T01:30:57;1.50;;;1.10;;
70305;SDS011;57714;51.698;5.344;2022-10-16T01:33:24;1.40;;;1.00;;
70305;SDS011;57714;51.698;5.344;2022-10-16T01:35:52;1.30;;;1.00;;
70305;SDS011;57714;51.698;5.344;2022-10-16T01:38:51;1.17;;;0.80;;
70305;SDS011;57714;51.698;5.344;2022-10-16T01:41:11;1.10;;;0.80;;
70305;SDS011;57714;51.698;5.344;2022-10-16T01:43:43;1.20;;;0.85;;
70305;SDS011;57714;51.698;5.344;2022-10-16T01:46:10;1.10;;;0.80;;
70305;SDS011;57714;51.698;5.344;2022-10-16T01:48:38;3.00;;;1.10;;
70305;SDS011;57714;51.698;5.344;2022-10-16T01:51:08;2.17;;;1.63;;
70305;SDS011;57714;51.698;5.344;2022-10-16T01:53:34;1.10;;;0.80;;
70305;SDS011;57714;51.698;5.344;2022-10-16T01:56:00;1.43;;;1.13;;
70305;SDS011;57714;51.698;5.344;2022-10-16T01:58:27;1.10;;;0.80;;
70305;SDS011;57714;51.698;5.344;2022-10-16T02:00:53;1.30;;;0.90;;
70305;SDS011;57714;51.698;5.344;2022-10-16T02:03:20;1.17;;;0.82;;
70305;SDS011;57714;51.698;5.344;2022-10-16T02:05:50;1.27;;;0.82;;
70305;SDS011;57714;51.698;5.344;2022-10-16T02:08:17;1.13;;;0.80;;
70305;SDS011;57714;51.698;5.344;2022-10-16T02:10:42;1.10;;;0.80;;
70305;SDS011;57714;51.698;5.344;2022-10-16T02:13:12;1.20;;;0.90;;
70305;SDS011;57714;51.698;5.344;2022-10-16T02:15:38;2.13;;;1.40;;
70305;SDS011;57714;51.698;5.344;2022-10-16T02:18:04;1.10;;;0.80;;
70305;SDS011;57714;51.698;5.344;2022-10-16T02:20:32;1.30;;;1.00;;
70305;SDS011;57714;51.698;5.344;2022-10-16T02:22:59;1.08;;;0.70;;
70305;SDS011;57714;51.698;5.344;2022-10-16T02:25:35;1.38;;;1.00;;
70305;SDS011;57714;51.698;5.344;2022-10-16T02:32:53;1.40;;;1.00;;
70305;SDS011;57714;51.698;5.344;2022-10-16T02:35:20;1.40;;;1.20;;
70305;SDS011;57714;51.698;5.344;2022-10-16T02:37:46;1.10;;;0.70;;
70305;SDS011;57714;51.698;5.344;2022-10-16T02:40:12;2.28;;;1.35;;
70305;SDS011;57714;51.698;5.344;2022-10-16T02:42:39;1.40;;;1.02;;
70305;SDS011;57714;51.698;5.344;2022-10-16T02:45:05;1.20;;;0.80;;
70305;SDS011;57714;51.698;5.344;2022-10-16T02:47:31;1.30;;;1.00;;
70305;SDS011;57714;51.698;5.344;2022-10-16T02:49:56;1.20;;;0.90;;
70305;SDS011;57714;51.698;5.344;2022-10-16T02:52:21;1.23;;;0.90;;
70305;SDS011;57714;51.698;5.344;2022-10-16T02:54:47;1.30;;;0.97;;
70305;SDS011;57714;51.698;5.344;2022-10-16T02:57:12;1.20;;;0.90;;
70305;SDS011;57714;51.698;5.344;2022-10-16T02:59:38;1.63;;;1.13;;
70305;SDS011;57714;51.698;5.344;2022-10-16T03:02:03;1.17;;;0.80;;
70305;SDS011;57714;51.698;5.344;2022-10-16T03:04:29;1.20;;;0.80;;
70305;SDS011;57714;51.698;5.344;2022-10-16T03:06:54;1.20;;;0.80;;
70305;SDS011;57714;51.698;5.344;2022-10-16T03:09:19;1.30;;;1.00;;
70305;SDS011;57714;51.698;5.344;2022-10-16T03:11:45;1.30;;;0.90;;
70305;SDS011;57714;51.698;5.344;2022-10-16T03:14:10;1.10;;;0.80;;
70305;SDS011;57714;51.698;5.344;2022-10-16T03:16:35;1.00;;;0.70;;
70305;SDS011;57714;51.698;5.344;2022-10-16T03:19:01;1.20;;;0.87;;
70305;SDS011;57714;51.698;5.344;2022-10-16T03:21:26;1.43;;;1.13;;
70305;SDS011;57714;51.698;5.344;2022-10-16T03:23:51;1.30;;;0.90;;
70305;SDS011;57714;51.698;5.344;2022-10-16T03:26:17;1.40;;;0.90;;
70305;SDS011;57714;51.698;5.344;2022-10-16T03:28:42;1.10;;;0.80;;
70305;SDS011;57714;51.698;5.344;2022-10-16T03:31:08;1.20;;;0.90;;
70305;SDS011;57714;51.698;5.344;2022-10-16T03:33:33;1.10;;;0.80;;
70305;SDS011;57714;51.698;5.344;2022-10-16T03:35:58;1.20;;;0.90;;
70305;SDS011;57714;51.698;5.344;2022-10-16T03:38:24;1.37;;;0.90;;
70305;SDS011;57714;51.698;5.344;2022-10-16T03:40:49;1.27;;;0.90;;
70305;SDS011;57714;51.698;5.344;2022-10-16T03:43:15;1.10;;;0.77;;
70305;SDS011;57714;51.698;5.344;2022-10-16T03:45:40;1.10;;;0.73;;
70305;SDS011;57714;51.698;5.344;2022-10-16T03:48:05;1.43;;;0.93;;
70305;SDS011;57714;51.698;5.344;2022-10-16T03:50:31;1.27;;;0.90;;
70305;SDS011;57714;51.698;5.344;2022-10-16T03:52:56;1.30;;;0.90;;
70305;SDS011;57714;51.698;5.344;2022-10-16T03:55:22;1.40;;;1.10;;
70305;SDS011;57714;51.698;5.344;2022-10-16T03:57:47;1.10;;;0.80;;
70305;SDS011;57714;51.698;5.344;2022-10-16T04:00:13;1.20;;;0.90;;
70305;SDS011;57714;51.698;5.344;2022-10-16T04:02:38;1.40;;;1.10;;
70305;SDS011;57714;51.698;5.344;2022-10-16T04:05:04;1.10;;;0.70;;
70305;SDS011;57714;51.698;5.344;2022-10-16T04:07:30;1.20;;;0.90;;
70305;SDS011;57714;51.698;5.344;2022-10-16T04:09:55;1.17;;;0.77;;
70305;SDS011;57714;51.698;5.344;2022-10-16T04:12:20;1.10;;;0.70;;
70305;SDS011;57714;51.698;5.344;2022-10-16T04:14:46;1.40;;;1.03;;
70305;SDS011;57714;51.698;5.344;2022-10-16T04:17:11;1.10;;;0.80;;
70305;SDS011;57714;51.698;5.344;2022-10-16T04:19:37;2.20;;;1.87;;
70305;SDS011;57714;51.698;5.344;2022-10-16T04:22:02;1.20;;;0.80;;
70305;SDS011;57714;51.698;5.344;2022-10-16T04:24:27;1.20;;;0.83;;
70305;SDS011;57714;51.698;5.344;2022-10-16T04:26:53;1.23;;;0.93;;
70305;SDS011;57714;51.698;5.344;2022-10-16T04:29:18;1.30;;;0.90;;
70305;SDS011;57714;51.698;5.344;2022-10-16T04:31:44;1.20;;;0.83;;
70305;SDS011;57714;51.698;5.344;2022-10-16T04:34:09;1.30;;;0.90;;
70305;SDS011;57714;51.698;5.344;2022-10-16T04:36:34;1.30;;;0.90;;
70305;SDS011;57714;51.698;5.344;2022-10-16T04:39:00;1.30;;;0.90;;
70305;SDS011;57714;51.698;5.344;2022-10-16T04:41:25;1.13;;;0.80;;
70305;SDS011;57714;51.698;5.344;2022-10-16T04:43:51;1.20;;;0.90;;
70305;SDS011;57714;51.698;5.344;2022-10-16T04:46:16;1.30;;;1.00;;
70305;SDS011;57714;51.698;5.344;2022-10-16T04:48:41;1.30;;;1.00;;
70305;SDS011;57714;51.698;5.344;2022-10-16T04:51:07;0.90;;;0.60;;
70305;SDS011;57714;51.698;5.344;2022-10-16T04:53:32;1.30;;;0.90;;
70305;SDS011;57714;51.698;5.344;2022-10-16T04:55:58;1.13;;;0.80;;
70305;SDS011;57714;51.698;5.344;2022-10-16T04:58:24;1.50;;;1.10;;
70305;SDS011;57714;51.698;5.344;2022-10-16T05:00:49;1.17;;;0.87;;
70305;SDS011;57714;51.698;5.344;2022-10-16T05:03:14;1.20;;;0.90;;
70305;SDS011;57714;51.698;5.344;2022-10-16T05:05:43;1.00;;;0.70;;
70305;SDS011;57714;51.698;5.344;2022-10-16T05:08:09;1.20;;;0.90;;
70305;SDS011;57714;51.698;5.344;2022-10-16T05:10:35;1.33;;;0.93;;
70305;SDS011;57714;51.698;5.344;2022-10-16T05:13:00;1.20;;;0.90;;
70305;SDS011;57714;51.698;5.344;2022-10-16T05:15:26;1.10;;;0.80;;
70305;SDS011;57714;51.698;5.344;2022-10-16T05:17:55;1.10;;;0.80;;
70305;SDS011;57714;51.698;5.344;2022-10-16T05:20:21;1.30;;;0.90;;
70305;SDS011;57714;51.698;5.344;2022-10-16T05:22:47;1.10;;;0.75;;
70305;SDS011;57714;51.698;5.344;2022-10-16T05:25:12;0.87;;;0.57;;
70305;SDS011;57714;51.698;5.344;2022-10-16T05:27:38;1.88;;;1.48;;
70305;SDS011;57714;51.698;5.344;2022-10-16T05:30:03;1.13;;;0.80;;
70305;SDS011;57714;51.698;5.344;2022-10-16T05:32:30;1.07;;;0.80;;
70305;SDS011;57714;51.698;5.344;2022-10-16T05:34:55;0.90;;;0.60;;
70305;SDS011;57714;51.698;5.344;2022-10-16T05:37:21;1.07;;;0.73;;
70305;SDS011;57714;51.698;5.344;2022-10-16T05:39:46;1.30;;;1.00;;
70305;SDS011;57714;51.698;5.344;2022-10-16T05:42:12;1.10;;;0.80;;
70305;SDS011;57714;51.698;5.344;2022-10-16T05:44:37;1.30;;;0.90;;
70305;SDS011;57714;51.698;5.344;2022-10-16T05:47:03;1.10;;;0.80;;
70305;SDS011;57714;51.698;5.344;2022-10-16T05:49:28;1.07;;;0.77;;
70305;SDS011;57714;51.698;5.344;2022-10-16T05:51:54;1.20;;;0.80;;
70305;SDS011;57714;51.698;5.344;2022-10-16T05:54:19;1.30;;;0.90;;
70305;SDS011;57714;51.698;5.344;2022-10-16T05:56:44;1.10;;;0.77;;
70305;SDS011;57714;51.698;5.344;2022-10-16T05:59:10;1.23;;;0.90;;
70305;SDS011;57714;51.698;5.344;2022-10-16T06:01:35;1.20;;;0.90;;
70305;SDS011;57714;51.698;5.344;2022-10-16T06:04:01;0.90;;;0.60;;
70305;SDS011;57714;51.698;5.344;2022-10-16T06:06:27;1.20;;;0.80;;
70305;SDS011;57714;51.698;5.344;2022-10-16T06:08:53;1.17;;;0.87;;
70305;SDS011;57714;51.698;5.344;2022-10-16T06:11:20;1.10;;;0.80;;
70305;SDS011;57714;51.698;5.344;2022-10-16T06:13:49;1.10;;;0.80;;
70305;SDS011;57714;51.698;5.344;2022-10-16T06:16:15;1.05;;;0.70;;
70305;SDS011;57714;51.698;5.344;2022-10-16T06:18:40;1.13;;;0.80;;
70305;SDS011;57714;51.698;5.344;2022-10-16T06:21:07;1.30;;;0.98;;
70305;SDS011;57714;51.698;5.344;2022-10-16T06:23:32;2.17;;;1.20;;
70305;SDS011;57714;51.698;5.344;2022-10-16T06:26:04;4.13;;;2.63;;
70305;SDS011;57714;51.698;5.344;2022-10-16T06:28:29;3.13;;;2.83;;
70305;SDS011;57714;51.698;5.344;2022-10-16T06:31:01;4.03;;;3.13;;
70305;SDS011;57714;51.698;5.344;2022-10-16T06:33:27;8.20;;;5.40;;
70305;SDS011;57714;51.698;5.344;2022-10-16T06:35:53;3.10;;;2.67;;
70305;SDS011;57714;51.698;5.344;2022-10-16T06:38:18;9.30;;;4.28;;
70305;SDS011;57714;51.698;5.344;2022-10-16T06:40:43;3.33;;;2.70;;
70305;SDS011;57714;51.698;5.344;2022-10-16T06:43:09;5.67;;;5.17;;
70305;SDS011;57714;51.698;5.344;2022-10-16T06:45:34;5.07;;;4.57;;
70305;SDS011;57714;51.698;5.344;2022-10-16T06:48:01;6.57;;;4.63;;
70305;SDS011;57714;51.698;5.344;2022-10-16T06:50:27;5.17;;;4.63;;
70305;SDS011;57714;51.698;5.344;2022-10-16T06:52:52;5.43;;;4.10;;
70305;SDS011;57714;51.698;5.344;2022-10-16T06:55:18;10.60;;;6.60;;
70305;SDS011;57714;51.698;5.344;2022-10-16T06:57:43;5.93;;;5.33;;
70305;SDS011;57714;51.698;5.344;2022-10-16T07:00:11;6.20;;;5.60;;
70305;SDS011;57714;51.698;5.344;2022-10-16T07:02:37;8.10;;;7.00;;
70305;SDS011;57714;51.698;5.344;2022-10-16T07:05:02;5.97;;;5.23;;
70305;SDS011;57714;51.698;5.344;2022-10-16T07:07:28;9.10;;;6.17;;
70305;SDS011;57714;51.698;5.344;2022-10-16T07:09:53;8.43;;;5.82;;
70305;SDS011;57714;51.698;5.344;2022-10-16T07:12:18;5.67;;;4.03;;
70305;SDS011;57714;51.698;5.344;2022-10-16T07:14:44;5.00;;;4.33;;
70305;SDS011;57714;51.698;5.344;2022-10-16T07:17:10;4.38;;;3.97;;
70305;SDS011;57714;51.698;5.344;2022-10-16T07:19:35;6.63;;;4.90;;
70305;SDS011;57714;51.698;5.344;2022-10-16T07:22:02;4.90;;;3.20;;
70305;SDS011;57714;51.698;5.344;2022-10-16T07:24:28;7.78;;;5.38;;
70305;SDS011;57714;51.698;5.344;2022-10-16T07:26:53;7.90;;;4.50;;
70305;SDS011;57714;51.698;5.344;2022-10-16T07:29:19;6.73;;;5.13;;
70305;SDS011;57714;51.698;5.344;2022-10-16T07:31:46;5.45;;;4.10;;
70305;SDS011;57714;51.698;5.344;2022-10-16T07:34:12;4.65;;;3.55;;
70305;SDS011;57714;51.698;5.344;2022-10-16T07:36:37;5.17;;;3.77;;
70305;SDS011;57714;51.698;5.344;2022-10-16T07:39:03;5.55;;;3.90;;
70305;SDS011;57714;51.698;5.344;2022-10-16T07:41:29;4.30;;;3.67;;
70305;SDS011;57714;51.698;5.344;2022-10-16T07:43:54;5.63;;;4.30;;
70305;SDS011;57714;51.698;5.344;2022-10-16T07:46:21;3.75;;;3.13;;
70305;SDS011;57714;51.698;5.344;2022-10-16T07:48:47;5.15;;;3.75;;
70305;SDS011;57714;51.698;5.344;2022-10-16T07:51:14;4.00;;;3.30;;
70305;SDS011;57714;51.698;5.344;2022-10-16T07:53:39;3.78;;;3.17;;
70305;SDS011;57714;51.698;5.344;2022-10-16T07:56:05;12.60;;;4.33;;
70305;SDS011;57714;51.698;5.344;2022-10-16T07:58:31;4.35;;;2.78;;
70305;SDS011;57714;51.698;5.344;2022-10-16T08:00:56;5.07;;;4.20;;
70305;SDS011;57714;51.698;5.344;2022-10-16T08:03:23;10.80;;;5.50;;
70305;SDS011;57714;51.698;5.344;2022-10-16T08:05:48;6.28;;;3.92;;
70305;SDS011;57714;51.698;5.344;2022-10-16T08:08:14;3.03;;;2.73;;
70305;SDS011;57714;51.698;5.344;2022-10-16T08:10:39;5.55;;;3.90;;
70305;SDS011;57714;51.698;5.344;2022-10-16T08:13:04;3.37;;;2.70;;
70305;SDS011;57714;51.698;5.344;2022-10-16T08:15:30;5.03;;;2.70;;
70305;SDS011;57714;51.698;5.344;2022-10-16T08:17:56;5.37;;;4.00;;
70305;SDS011;57714;51.698;5.344;2022-10-16T08:20:22;3.42;;;3.13;;
70305;SDS011;57714;51.698;5.344;2022-10-16T08:22:47;6.10;;;2.97;;
70305;SDS011;57714;51.698;5.344;2022-10-16T08:25:13;9.40;;;3.88;;
70305;SDS011;57714;51.698;5.344;2022-10-16T08:27:38;27.47;;;2.80;;
70305;SDS011;57714;51.698;5.344;2022-10-16T08:30:04;3.47;;;2.80;;
70305;SDS011;57714;51.698;5.344;2022-10-16T08:32:29;2.03;;;1.73;;
70305;SDS011;57714;51.698;5.344;2022-10-16T08:34:54;1.90;;;1.40;;
70305;SDS011;57714;51.698;5.344;2022-10-16T08:37:20;2.87;;;2.47;;
70305;SDS011;57714;51.698;5.344;2022-10-16T08:39:45;1.73;;;1.30;;
70305;SDS011;57714;51.698;5.344;2022-10-16T08:47:13;1.20;;;0.82;;
70305;SDS011;57714;51.698;5.344;2022-10-16T08:49:40;2.10;;;1.57;;
70305;SDS011;57714;51.698;5.344;2022-10-16T08:52:10;1.80;;;1.50;;
70305;SDS011;57714;51.698;5.344;2022-10-16T08:54:36;1.50;;;1.20;;
70305;SDS011;57714;51.698;5.344;2022-10-16T08:57:24;1.30;;;1.00;;
70305;SDS011;57714;51.698;5.344;2022-10-16T08:59:50;1.58;;;1.20;;
70305;SDS011;57714;51.698;5.344;2022-10-16T09:02:24;1.73;;;1.37;;
70305;SDS011;57714;51.698;5.344;2022-10-16T09:07:26;2.03;;;1.23;;
70305;SDS011;57714;51.698;5.344;2022-10-16T09:15:07;1.20;;;0.90;;
70305;SDS011;57714;51.698;5.344;2022-10-16T09:22:31;1.20;;;0.80;;
70305;SDS011;57714;51.698;5.344;2022-10-16T09:24:59;1.15;;;0.73;;
70305;SDS011;57714;51.698;5.344;2022-10-16T09:27:25;1.00;;;0.70;;
70305;SDS011;57714;51.698;5.344;2022-10-16T09:29:51;1.00;;;0.70;;
70305;SDS011;57714;51.698;5.344;2022-10-16T09:32:18;1.35;;;1.10;;
70305;SDS011;57714;51.698;5.344;2022-10-16T09:34:48;1.30;;;1.00;;
70305;SDS011;57714;51.698;5.344;2022-10-16T09:37:16;1.03;;;0.70;;
70305;SDS011;57714;51.698;5.344;2022-10-16T09:39:50;1.95;;;1.70;;
70305;SDS011;57714;51.698;5.344;2022-10-16T09:42:19;1.10;;;0.80;;
70305;SDS011;57714;51.698;5.344;2022-10-16T09:44:49;1.15;;;0.80;;
70305;SDS011;57714;51.698;5.344;2022-10-16T09:47:16;1.80;;;1.42;;
70305;SDS011;57714;51.698;5.344;2022-10-16T09:52:18;1.10;;;0.80;;
70305;SDS011;57714;51.698;5.344;2022-10-16T09:54:53;1.58;;;1.10;;
70305;SDS011;57714;51.698;5.344;2022-10-16T09:57:20;1.20;;;0.90;;
70305;SDS011;57714;51.698;5.344;2022-10-16T09:59:46;1.20;;;0.80;;
70305;SDS011;57714;51.698;5.344;2022-10-16T10:02:12;1.10;;;0.80;;
70305;SDS011;57714;51.698;5.344;2022-10-16T10:04:50;1.85;;;1.52;;
70305;SDS011;57714;51.698;5.344;2022-10-16T10:07:36;1.40;;;1.10;;
70305;SDS011;57714;51.698;5.344;2022-10-16T10:10:03;3.58;;;1.27;;
70305;SDS011;57714;51.698;5.344;2022-10-16T10:12:29;1.20;;;0.85;;
70305;SDS011;57714;51.698;5.344;2022-10-16T10:14:58;1.00;;;0.60;;
70305;SDS011;57714;51.698;5.344;2022-10-16T10:17:28;1.17;;;0.80;;
70305;SDS011;57714;51.698;5.344;2022-10-16T10:24:54;1.60;;;1.00;;
70305;SDS011;57714;51.698;5.344;2022-10-16T10:27:20;1.20;;;0.90;;
70305;SDS011;57714;51.698;5.344;2022-10-16T10:35:15;1.20;;;0.80;;
70305;SDS011;57714;51.698;5.344;2022-10-16T10:37:47;1.10;;;0.77;;
70305;SDS011;57714;51.698;5.344;2022-10-16T10:45:46;1.20;;;0.88;;
70305;SDS011;57714;51.698;5.344;2022-10-16T10:48:15;1.35;;;0.98;;
70305;SDS011;57714;51.698;5.344;2022-10-16T10:50:52;1.20;;;0.90;;
70305;SDS011;57714;51.698;5.344;2022-10-16T11:01:22;1.10;;;0.80;;
70305;SDS011;57714;51.698;5.344;2022-10-16T11:09:07;1.30;;;0.90;;
70305;SDS011;57714;51.698;5.344;2022-10-16T11:11:35;1.27;;;0.88;;
70305;SDS011;57714;51.698;5.344;2022-10-16T11:14:11;1.30;;;1.00;;
70305;SDS011;57714;51.698;5.344;2022-10-16T11:16:42;1.23;;;0.90;;
70305;SDS011;57714;51.698;5.344;2022-10-16T11:21:50;2.93;;;2.50;;
70305;SDS011;57714;51.698;5.344;2022-10-16T11:26:42;1.90;;;1.30;;
70305;SDS011;57714;51.698;5.344;2022-10-16T11:29:20;0.93;;;0.60;;
70305;SDS011;57714;51.698;5.344;2022-10-16T11:31:49;1.10;;;0.80;;
70305;SDS011;57714;51.698;5.344;2022-10-16T11:34:22;1.27;;;0.90;;
70305;SDS011;57714;51.698;5.344;2022-10-16T11:36:51;1.20;;;0.90;;
70305;SDS011;57714;51.698;5.344;2022-10-16T11:39:23;1.20;;;0.90;;
70305;SDS011;57714;51.698;5.344;2022-10-16T11:47:24;1.50;;;0.90;;
70305;SDS011;57714;51.698;5.344;2022-10-16T11:49:52;1.63;;;1.23;;
70305;SDS011;57714;51.698;5.344;2022-10-16T11:52:35;1.50;;;1.13;;
70305;SDS011;57714;51.698;5.344;2022-10-16T11:57:28;1.40;;;1.10;;
70305;SDS011;57714;51.698;5.344;2022-10-16T12:07:46;1.17;;;0.88;;
70305;SDS011;57714;51.698;5.344;2022-10-16T12:10:21;2.37;;;1.10;;
70305;SDS011;57714;51.698;5.344;2022-10-16T12:12:47;0.95;;;0.70;;
70305;SDS011;57714;51.698;5.344;2022-10-16T12:17:41;1.05;;;0.77;;
70305;SDS011;57714;51.698;5.344;2022-10-16T12:22:41;1.30;;;0.93;;
70305;SDS011;57714;51.698;5.344;2022-10-16T12:25:26;1.20;;;0.90;;
70305;SDS011;57714;51.698;5.344;2022-10-16T12:27:54;1.20;;;0.90;;
70305;SDS011;57714;51.698;5.344;2022-10-16T12:30:21;1.27;;;0.90;;
70305;SDS011;57714;51.698;5.344;2022-10-16T12:32:52;2.10;;;1.90;;
70305;SDS011;57714;51.698;5.344;2022-10-16T12:35:28;1.30;;;0.93;;
70305;SDS011;57714;51.698;5.344;2022-10-16T12:38:04;4.55;;;1.77;;
70305;SDS011;57714;51.698;5.344;2022-10-16T12:40:32;1.23;;;0.85;;
70305;SDS011;57714;51.698;5.344;2022-10-16T12:42:57;1.38;;;1.10;;
70305;SDS011;57714;51.698;5.344;2022-10-16T12:47:49;2.17;;;1.10;;
70305;SDS011;57714;51.698;5.344;2022-10-16T12:50:29;1.20;;;0.85;;
70305;SDS011;57714;51.698;5.344;2022-10-16T12:52:56;1.30;;;0.90;;
70305;SDS011;57714;51.698;5.344;2022-10-16T12:55:22;1.20;;;0.80;;
70305;SDS011;57714;51.698;5.344;2022-10-16T12:57:58;1.20;;;0.82;;
70305;SDS011;57714;51.698;5.344;2022-10-16T13:00:32;5.90;;;0.93;;
70305;SDS011;57714;51.698;5.344;2022-10-16T13:10:28;3.00;;;2.70;;
70305;SDS011;57714;51.698;5.344;2022-10-16T13:16:13;5.95;;;3.25;;
70305;SDS011;57714;51.698;5.344;2022-10-16T13:18:32;3.90;;;2.45;;
70305;SDS011;57714;51.698;5.344;2022-10-16T13:21:07;8.57;;;3.25;;
70305;SDS011;57714;51.698;5.344;2022-10-16T13:26:37;6.83;;;2.40;;
70305;SDS011;57714;51.698;5.344;2022-10-16T13:29:06;2.45;;;1.52;;
70305;SDS011;57714;51.698;5.344;2022-10-16T13:31:31;7.37;;;3.40;;
70305;SDS011;57714;51.698;5.344;2022-10-16T13:33:58;2.15;;;1.77;;
70305;SDS011;57714;51.698;5.344;2022-10-16T13:36:28;2.90;;;2.60;;
70305;SDS011;57714;51.698;5.344;2022-10-16T13:39:10;6.77;;;3.03;;
70305;SDS011;57714;51.698;5.344;2022-10-16T13:41:37;3.03;;;2.33;;
70305;SDS011;57714;51.698;5.344;2022-10-16T13:44:02;10.68;;;3.05;;
70305;SDS011;57714;51.698;5.344;2022-10-16T13:46:27;3.70;;;2.57;;
70305;SDS011;57714;51.698;5.344;2022-10-16T13:49:01;6.47;;;2.55;;
70305;SDS011;57714;51.698;5.344;2022-10-16T13:51:28;4.03;;;1.87;;
70305;SDS011;57714;51.698;5.344;2022-10-16T13:53:54;5.13;;;3.47;;
70305;SDS011;57714;51.698;5.344;2022-10-16T13:56:21;3.72;;;1.98;;
70305;SDS011;57714;51.698;5.344;2022-10-16T13:58:57;3.10;;;2.67;;
70305;SDS011;57714;51.698;5.344;2022-10-16T14:01:23;2.10;;;1.67;;
70305;SDS011;57714;51.698;5.344;2022-10-16T14:03:49;1.45;;;1.15;;
70305;SDS011;57714;51.698;5.344;2022-10-16T14:06:19;3.35;;;1.65;;
70305;SDS011;57714;51.698;5.344;2022-10-16T14:08:59;1.30;;;1.02;;
70305;SDS011;57714;51.698;5.344;2022-10-16T14:11:25;1.30;;;1.00;;
70305;SDS011;57714;51.698;5.344;2022-10-16T14:13:51;2.05;;;1.38;;
70305;SDS011;57714;51.698;5.344;2022-10-16T14:16:20;1.25;;;0.90;;
70305;SDS011;57714;51.698;5.344;2022-10-16T14:18:50;2.00;;;1.48;;
70305;SDS011;57714;51.698;5.344;2022-10-16T14:21:19;1.20;;;0.83;;
70305;SDS011;57714;51.698;5.344;2022-10-16T14:23:45;1.73;;;1.30;;
70305;SDS011;57714;51.698;5.344;2022-10-16T14:28:36;1.20;;;0.80;;
70305;SDS011;57714;51.698;5.344;2022-10-16T14:31:02;1.20;;;0.93;;
70305;SDS011;57714;51.698;5.344;2022-10-16T14:33:42;1.20;;;0.90;;
70305;SDS011;57714;51.698;5.344;2022-10-16T14:36:14;2.00;;;1.40;;
70305;SDS011;57714;51.698;5.344;2022-10-16T14:38:42;1.10;;;0.80;;
70305;SDS011;57714;51.698;5.344;2022-10-16T14:41:08;1.05;;;0.65;;
70305;SDS011;57714;51.698;5.344;2022-10-16T14:43:35;1.60;;;1.00;;
70305;SDS011;57714;51.698;5.344;2022-10-16T14:46:02;1.00;;;0.70;;
70305;SDS011;57714;51.698;5.344;2022-10-16T14:48:28;1.00;;;0.70;;
70305;SDS011;57714;51.698;5.344;2022-10-16T14:50:54;1.07;;;0.70;;
70305;SDS011;57714;51.698;5.344;2022-10-16T14:53:19;1.30;;;0.90;;
70305;SDS011;57714;51.698;5.344;2022-10-16T14:55:45;1.63;;;1.10;;
70305;SDS011;57714;51.698;5.344;2022-10-16T14:58:17;1.20;;;0.90;;
70305;SDS011;57714;51.698;5.344;2022-10-16T15:00:43;1.02;;;0.70;;
70305;SDS011;57714;51.698;5.344;2022-10-16T15:03:09;1.30;;;0.90;;
70305;SDS011;57714;51.698;5.344;2022-10-16T15:05:34;1.05;;;0.75;;
70305;SDS011;57714;51.698;5.344;2022-10-16T15:08:00;1.50;;;1.23;;
70305;SDS011;57714;51.698;5.344;2022-10-16T15:10:26;1.57;;;1.10;;
70305;SDS011;57714;51.698;5.344;2022-10-16T15:12:52;1.25;;;0.90;;
70305;SDS011;57714;51.698;5.344;2022-10-16T15:17:50;1.13;;;0.82;;
70305;SDS011;57714;51.698;5.344;2022-10-16T15:20:19;1.20;;;0.87;;
70305;SDS011;57714;51.698;5.344;2022-10-16T15:22:44;1.13;;;0.80;;
70305;SDS011;57714;51.698;5.344;2022-10-16T15:25:15;1.30;;;1.00;;
70305;SDS011;57714;51.698;5.344;2022-10-16T15:27:50;1.00;;;0.70;;
70305;SDS011;57714;51.698;5.344;2022-10-16T15:30:15;1.13;;;0.80;;
70305;SDS011;57714;51.698;5.344;2022-10-16T15:32:41;1.42;;;1.10;;
70305;SDS011;57714;51.698;5.344;2022-10-16T15:35:09;1.10;;;0.77;;
70305;SDS011;57714;51.698;5.344;2022-10-16T15:37:35;1.00;;;0.70;;
70305;SDS011;57714;51.698;5.344;2022-10-16T15:40:00;3.95;;;1.52;;
70305;SDS011;57714;51.698;5.344;2022-10-16T15:42:25;3.97;;;1.63;;
70305;SDS011;57714;51.698;5.344;2022-10-16T15:44:51;1.27;;;0.90;;
70305;SDS011;57714;51.698;5.344;2022-10-16T15:47:16;1.10;;;0.80;;
70305;SDS011;57714;51.698;5.344;2022-10-16T15:49:42;1.13;;;0.80;;
70305;SDS011;57714;51.698;5.344;2022-10-16T15:52:07;1.25;;;0.90;;
70305;SDS011;57714;51.698;5.344;2022-10-16T15:54:32;1.63;;;1.33;;
70305;SDS011;57714;51.698;5.344;2022-10-16T15:56:58;4.97;;;1.27;;
70305;SDS011;57714;51.698;5.344;2022-10-16T15:59:23;1.83;;;0.97;;
70305;SDS011;57714;51.698;5.344;2022-10-16T16:01:49;1.10;;;0.77;;
70305;SDS011;57714;51.698;5.344;2022-10-16T16:04:14;1.10;;;0.80;;
70305;SDS011;57714;51.698;5.344;2022-10-16T16:06:39;4.87;;;2.13;;
70305;SDS011;57714;51.698;5.344;2022-10-16T16:09:13;1.45;;;1.02;;
70305;SDS011;57714;51.698;5.344;2022-10-16T16:11:39;1.35;;;0.88;;
70305;SDS011;57714;51.698;5.344;2022-10-16T16:14:05;1.27;;;0.83;;
70305;SDS011;57714;51.698;5.344;2022-10-16T16:16:30;1.48;;;1.13;;
70305;SDS011;57714;51.698;5.344;2022-10-16T16:18:58;1.02;;;0.73;;
70305;SDS011;57714;51.698;5.344;2022-10-16T16:21:24;1.60;;;0.97;;
70305;SDS011;57714;51.698;5.344;2022-10-16T16:23:49;1.47;;;1.10;;
70305;SDS011;57714;51.698;5.344;2022-10-16T16:26:20;1.63;;;1.00;;
70305;SDS011;57714;51.698;5.344;2022-10-16T16:28:49;1.30;;;1.00;;
70305;SDS011;57714;51.698;5.344;2022-10-16T16:31:14;2.15;;;1.45;;
70305;SDS011;57714;51.698;5.344;2022-10-16T16:33:39;1.57;;;1.20;;
70305;SDS011;57714;51.698;5.344;2022-10-16T16:36:05;1.37;;;1.03;;
70305;SDS011;57714;51.698;5.344;2022-10-16T16:38:31;1.60;;;1.25;;
70305;SDS011;57714;51.698;5.344;2022-10-16T16:40:57;2.22;;;1.42;;
70305;SDS011;57714;51.698;5.344;2022-10-16T16:43:23;1.50;;;1.20;;